Marco Island, FL

09:12 PM EDT pas April 25, 2015 (GMT -0400)
KFLMARCO2 | | Change Station
CLOSE
Current Station
Personal Weather Stations
Location: Marco Island, FL
Elevation: 10 ft
Nearby Weather Stations

Elev 10 ft 25.93 °N, 81.71 °W | Updated 2 minutes ago

Mendhung
Mendhung
80.7 °F
Feels Like 78 °F
N
0.0
Angin Variable Angin from SW
Gusts 2.0 mph

Dina Iki
High -- | Low -- °F
--% Chance of Precip.
Yesterday
High -- | Low -- °F
Precip. -- ning
6:54 AM 7:55 PM
Waxing Crescent, 50% visible
Tekanan 29.88 ning
Jarak Tingali 10.0 mil
Mega Padhang
Indeks Panas 78 °F
Titik Embun Not available.
Kelembaban Not available.
Rainfall 0.00 ning
Snow Depth Not available.
UV 0.0 out of 12
Pollen 6.10 out of 12
Air Quality Not available.
Flu Activity Local Activity
METAR KMKY 260055Z AUTO 23004KT 10SM CLR 27/22 A2988 RMK AO1

More Conditions Fewer Conditions

Tekanan 29.88 ning
Jarak Tingali 10.0 mil
Mega Padhang
Indeks Panas 78 °F
Titik Embun Not available.
Kelembaban Not available.
Rainfall 0.00 ning
Snow Depth Not available.
UV 0.0 out of 12
Pollen 6.10 out of 12
Air Quality Not available.
Flu Activity Local Activity
METAR KMKY 260055Z AUTO 23004KT 10SM CLR 27/22 A2988 RMK AO1

More Conditions Fewer Conditions

10-Day Weather Forecast

Almanac

Astronomy

Apr. 25, 2015 Rise Set
Actual Time
Civil Twilight
Nautical Twilight
Astronomical Twilight
Wulan
Length Of Visible Light
Length of Day
Tomorrow will be .
, % of the Moon is Illuminated

Today's Extremes

State Highs State Lows

Community

WunderPhotos

Upload Photos

1,816,878 photos uploaded!

WunderBlogs® & News

Nearby

Air Quality

  Air Quality AQ Index Pollutant
Not available.

Snow Depth

Station Depth Elevation

Earthquake Activity

Kutho Distance Mag. Time & Date
Minimum magnitude displayed is 2.5.

Coastal Water Temperatures

Panggonan Suhu

Stations

Nearby Weather Stations

Station Location Temp Angin Adhem Titik Embun Kelembaban Angin Precip. Elev Anyar Type